Time;durP1;ratioP1;P1;durP2;ratioP2;P2;SDS_P1;SDS_P2;PMS_P1;PMS_P2;Temp;Humidity;BMP_temperature;BMP_pressure;BME280_temperature;BME280_humidity;BME280_pressure;Samples;Min_cycle;Max_cycle;Signal;HPM_P1;HPM_P2
2020/12/11 00:01:32;;;;;;;55.53;22.10;;;2.40;99.90;;;;;;5109234;28;20047;-64
2020/12/11 00:03:59;;;;;;;59.90;23.35;;;2.40;99.90;;;;;;5109717;28;20051;-64
2020/12/11 00:06:25;;;;;;;53.83;23.05;;;2.50;99.90;;;;;;5108582;28;20046;-64
2020/12/11 00:08:52;;;;;;;67.20;26.10;;;2.50;99.90;;;;;;5108851;28;20059;-64
2020/12/11 00:11:26;;;;;;;59.75;23.52;;;2.60;99.90;;;;;;5109058;28;20126;-62
2020/12/11 00:13:53;;;;;;;62.25;24.00;;;2.60;99.90;;;;;;5108431;28;20066;-64
2020/12/11 00:16:20;;;;;;;57.65;23.45;;;2.60;99.90;;;;;;5109609;28;20066;-64
2020/12/11 00:18:47;;;;;;;61.65;24.60;;;2.60;99.90;;;;;;5108882;28;20401;-64
2020/12/11 00:21:14;;;;;;;54.65;22.38;;;2.60;99.90;;;;;;5107691;28;20474;-63
2020/12/11 00:23:40;;;;;;;55.40;22.38;;;2.60;99.90;;;;;;5109293;28;20051;-64
2020/12/11 00:26:07;;;;;;;49.88;21.20;;;2.60;99.90;;;;;;5108929;28;20043;-63
2020/12/11 00:28:33;;;;;;;55.60;23.30;;;2.60;99.90;;;;;;5109199;28;20519;-65
2020/12/11 00:31:00;;;;;;;49.40;21.20;;;2.60;99.90;;;;;;5108442;28;20504;-64
2020/12/11 00:33:27;;;;;;;56.97;23.15;;;2.70;99.90;;;;;;5109119;28;20044;-65
2020/12/11 00:35:54;;;;;;;54.63;21.40;;;2.70;99.90;;;;;;5106001;28;20056;-63
2020/12/11 00:38:21;;;;;;;52.95;21.10;;;2.70;99.90;;;;;;5110564;28;20043;-64
2020/12/11 00:40:47;;;;;;;54.15;21.45;;;2.70;99.90;;;;;;5112598;28;20040;-64
2020/12/11 00:43:14;;;;;;;56.70;20.88;;;2.70;99.90;;;;;;5111345;28;20044;-64
2020/12/11 00:45:40;;;;;;;56.65;20.48;;;2.70;99.90;;;;;;5113323;28;20429;-64
2020/12/11 00:48:07;;;;;;;52.63;20.50;;;2.70;99.90;;;;;;5111545;28;20051;-63
2020/12/11 00:50:33;;;;;;;43.58;19.00;;;2.70;99.90;;;;;;5113307;28;20063;-63
2020/12/11 00:53:00;;;;;;;46.58;18.88;;;2.70;99.90;;;;;;5112141;28;20058;-67
2020/12/11 00:55:26;;;;;;;51.60;20.40;;;2.70;99.90;;;;;;5111488;28;20458;-64
2020/12/11 00:57:53;;;;;;;43.17;18.27;;;2.70;99.90;;;;;;5112137;28;20060;-64
2020/12/11 01:00:19;;;;;;;47.17;20.30;;;2.70;99.90;;;;;;5112364;28;20105;-63
2020/12/11 01:02:46;;;;;;;46.53;18.55;;;2.70;99.90;;;;;;5112637;28;20059;-64
2020/12/11 01:05:12;;;;;;;46.88;18.80;;;2.70;99.90;;;;;;5111846;28;20047;-64
2020/12/11 01:07:38;;;;;;;48.50;20.30;;;2.70;99.90;;;;;;5112660;28;20471;-64
2020/12/11 01:10:05;;;;;;;45.58;17.58;;;2.70;99.90;;;;;;5112097;28;20055;-64
2020/12/11 01:12:31;;;;;;;50.42;19.13;;;2.70;99.90;;;;;;5111712;28;20086;-63
2020/12/11 01:14:58;;;;;;;48.53;19.27;;;2.70;99.90;;;;;;5111181;28;20047;-64
2020/12/11 01:17:24;;;;;;;45.13;18.13;;;2.70;99.90;;;;;;5111979;28;20055;-64
2020/12/11 01:19:51;;;;;;;46.92;18.48;;;2.70;99.90;;;;;;5113113;28;20062;-64
2020/12/11 01:22:18;;;;;;;41.05;17.20;;;2.60;99.90;;;;;;5110944;28;20161;-64
2020/12/11 01:24:44;;;;;;;47.17;17.77;;;2.70;99.90;;;;;;5111935;28;20047;-64
2020/12/11 01:27:11;;;;;;;50.42;18.08;;;2.70;99.90;;;;;;5111615;28;20071;-63
2020/12/11 01:29:38;;;;;;;43.67;17.33;;;2.70;99.90;;;;;;5111187;28;20390;-64
2020/12/11 01:32:05;;;;;;;44.33;18.23;;;2.70;99.90;;;;;;5110541;28;20048;-64
2020/12/11 01:34:31;;;;;;;42.90;18.13;;;2.60;99.90;;;;;;5094210;28;20183;-63
2020/12/11 01:37:05;;;;;;;38.20;16.33;;;2.60;99.90;;;;;;5109439;28;20147;-64
2020/12/11 01:39:32;;;;;;;42.50;17.95;;;2.60;99.90;;;;;;5111596;28;20389;-64
2020/12/11 01:42:00;;;;;;;44.20;18.88;;;2.50;99.90;;;;;;5110259;28;20051;-65
2020/12/11 01:44:26;;;;;;;39.65;17.83;;;2.60;99.90;;;;;;5110941;28;20050;-64
2020/12/11 01:46:57;;;;;;;40.75;17.10;;;2.60;99.90;;;;;;5111532;27;20386;-64
2020/12/11 01:49:24;;;;;;;40.13;15.98;;;2.60;99.90;;;;;;5111934;28;20051;-63
2020/12/11 01:51:50;;;;;;;41.80;16.63;;;2.60;99.90;;;;;;5111197;28;20056;-63
2020/12/11 01:54:17;;;;;;;40.60;17.70;;;2.60;99.90;;;;;;5111319;28;20047;-64
2020/12/11 01:56:51;;;;;;;44.30;18.17;;;2.70;99.90;;;;;;5111513;28;20060;-64
2020/12/11 01:59:26;;;;;;;44.22;17.55;;;2.60;99.90;;;;;;5111132;28;20055;-63
2020/12/11 02:01:57;;;;;;;42.50;17.08;;;2.60;99.90;;;;;;5109593;28;20565;-65
2020/12/11 02:04:24;;;;;;;40.22;15.95;;;2.60;99.90;;;;;;5109639;28;20047;-63
2020/12/11 02:06:51;;;;;;;47.95;17.52;;;2.60;99.90;;;;;;5100351;28;20398;-63
2020/12/11 02:09:20;;;;;;;45.58;17.63;;;2.60;99.90;;;;;;5111202;28;20495;-63
2020/12/11 02:11:50;;;;;;;46.20;17.33;;;2.60;99.90;;;;;;5096714;28;20502;-63
2020/12/11 02:14:17;;;;;;;43.97;16.35;;;2.60;99.90;;;;;;5111227;28;20047;-63
2020/12/11 02:16:45;;;;;;;48.88;16.88;;;2.50;99.90;;;;;;5110779;28;20059;-68
2020/12/11 02:19:12;;;;;;;47.33;16.70;;;2.50;99.90;;;;;;5110874;28;20056;-63
2020/12/11 02:21:39;;;;;;;41.92;17.10;;;2.50;99.90;;;;;;5110666;28;20039;-62
2020/12/11 02:24:05;;;;;;;46.92;18.10;;;2.50;99.90;;;;;;5110960;28;20043;-64
2020/12/11 02:26:32;;;;;;;45.90;17.70;;;2.50;99.90;;;;;;5110620;28;20048;-63
2020/12/11 02:28:59;;;;;;;45.72;17.17;;;2.50;99.90;;;;;;5111185;28;20060;-63
2020/12/11 02:31:25;;;;;;;46.42;17.42;;;2.50;99.90;;;;;;5109738;28;20130;-63
2020/12/11 02:33:52;;;;;;;49.70;17.95;;;2.50;99.90;;;;;;5111159;28;20486;-64
2020/12/11 02:36:21;;;;;;;43.58;17.83;;;2.50;99.90;;;;;;5110511;28;20507;-63
2020/12/11 02:38:48;;;;;;;46.42;18.33;;;2.50;99.90;;;;;;5108813;28;20044;-63
2020/12/11 02:41:14;;;;;;;45.03;17.50;;;2.50;99.90;;;;;;5110269;28;20043;-63
2020/12/11 02:43:41;;;;;;;40.53;16.42;;;2.50;99.90;;;;;;5110604;28;20047;-64
2020/12/11 02:46:08;;;;;;;42.10;16.58;;;2.50;99.90;;;;;;5111028;28;20375;-67
2020/12/11 02:48:34;;;;;;;47.20;17.95;;;2.50;99.90;;;;;;5109971;28;20036;-63
2020/12/11 02:51:01;;;;;;;42.05;16.55;;;2.50;99.90;;;;;;5109978;28;20051;-65
2020/12/11 02:53:27;;;;;;;38.30;14.82;;;2.50;99.90;;;;;;5110268;28;20478;-65
2020/12/11 02:55:56;;;;;;;40.85;14.65;;;2.50;99.90;;;;;;5109608;28;20047;-63
2020/12/11 02:58:22;;;;;;;47.33;16.77;;;2.50;99.90;;;;;;5109022;28;20059;-64
2020/12/11 03:00:49;;;;;;;44.30;15.63;;;2.60;99.90;;;;;;5109797;28;20048;-63
2020/12/11 03:03:16;;;;;;;44.00;16.50;;;2.60;99.90;;;;;;5110107;28;20051;-63
2020/12/11 03:05:42;;;;;;;40.72;15.27;;;2.60;99.90;;;;;;5107893;28;20359;-64
2020/12/11 03:08:08;;;;;;;40.33;16.40;;;2.60;99.90;;;;;;5110771;28;20059;-64
2020/12/11 03:10:35;;;;;;;40.95;15.75;;;2.60;99.90;;;;;;5109252;28;20398;-67
2020/12/11 03:13:01;;;;;;;41.38;16.65;;;2.60;99.90;;;;;;5092431;28;20048;-63
2020/12/11 03:15:28;;;;;;;39.38;15.13;;;2.60;99.90;;;;;;5109720;28;20039;-63
2020/12/11 03:17:54;;;;;;;45.25;15.80;;;2.60;99.90;;;;;;5110794;28;20052;-63
2020/12/11 03:20:23;;;;;;;39.85;16.17;;;2.60;99.90;;;;;;5110605;28;20408;-62
2020/12/11 03:22:53;;;;;;;36.72;14.63;;;2.60;99.90;;;;;;5108856;28;20045;-62
2020/12/11 03:25:20;;;;;;;38.33;14.57;;;2.50;99.90;;;;;;5109520;28;20421;-63
2020/12/11 03:27:47;;;;;;;45.05;15.63;;;2.60;99.90;;;;;;5108389;28;20043;-63
2020/12/11 03:30:13;;;;;;;38.65;13.85;;;2.60;99.90;;;;;;5110739;28;20066;-62
2020/12/11 03:32:40;;;;;;;40.90;15.32;;;2.60;99.90;;;;;;5108947;28;20060;-63
2020/12/11 03:35:06;;;;;;;42.60;15.65;;;2.50;99.90;;;;;;5110284;28;20134;-64
2020/12/11 03:37:33;;;;;;;35.47;13.73;;;2.50;99.90;;;;;;5109614;28;20075;-62
2020/12/11 03:39:59;;;;;;;36.47;13.90;;;2.50;99.90;;;;;;5108158;28;20608;-63
2020/12/11 03:42:26;;;;;;;39.70;14.48;;;2.50;99.90;;;;;;5109274;28;20410;-63
2020/12/11 03:44:52;;;;;;;37.15;14.48;;;2.50;99.90;;;;;;5109679;28;20043;-63
2020/12/11 03:47:18;;;;;;;44.03;14.60;;;2.50;99.90;;;;;;5108701;28;20047;-63
2020/12/11 03:49:45;;;;;;;35.67;14.77;;;2.50;99.90;;;;;;5109539;28;20142;-64
2020/12/11 03:52:12;;;;;;;33.60;13.68;;;2.50;99.90;;;;;;5108125;28;20374;-63
2020/12/11 03:54:38;;;;;;;36.75;14.43;;;2.60;99.90;;;;;;5109272;28;20052;-64
2020/12/11 03:57:04;;;;;;;32.35;13.45;;;2.50;99.90;;;;;;5109068;28;20054;-64
2020/12/11 03:59:31;;;;;;;31.42;12.90;;;2.50;99.90;;;;;;5110936;28;20051;-66
2020/12/11 04:01:57;;;;;;;31.20;13.57;;;2.50;99.90;;;;;;5106697;28;20050;-63
2020/12/11 04:04:24;;;;;;;32.70;12.75;;;2.50;99.90;;;;;;5109960;28;20446;-63
2020/12/11 04:06:50;;;;;;;33.63;14.50;;;2.50;99.90;;;;;;5108658;28;20048;-64
2020/12/11 04:09:17;;;;;;;33.60;13.48;;;2.50;99.90;;;;;;5108838;28;20443;-63
2020/12/11 04:11:44;;;;;;;34.88;13.40;;;2.50;99.90;;;;;;5113717;28;20051;-63
2020/12/11 04:14:10;;;;;;;30.48;13.00;;;2.50;99.90;;;;;;5112440;28;20051;-64
2020/12/11 04:16:37;;;;;;;31.25;13.73;;;2.50;99.90;;;;;;5112277;28;20055;-64
2020/12/11 04:19:03;;;;;;;31.27;13.50;;;2.50;99.90;;;;;;5114580;28;20079;-62
2020/12/11 04:21:30;;;;;;;30.25;13.68;;;2.50;99.90;;;;;;5112757;28;20501;-64
2020/12/11 04:23:56;;;;;;;30.73;13.13;;;2.50;99.90;;;;;;5112437;28;20387;-64
2020/12/11 04:26:23;;;;;;;31.77;13.27;;;2.50;99.90;;;;;;5112636;28;20040;-63
2020/12/11 04:28:49;;;;;;;33.58;13.70;;;2.50;99.90;;;;;;5112710;28;20068;-65
2020/12/11 04:31:18;;;;;;;29.00;13.05;;;2.50;99.90;;;;;;5115889;28;20048;-65
2020/12/11 04:33:45;;;;;;;31.15;13.93;;;2.60;99.90;;;;;;5114747;28;20452;-63
2020/12/11 04:36:18;;;;;;;30.85;12.98;;;2.60;99.90;;;;;;5113144;28;20044;-63
2020/12/11 04:38:47;;;;;;;29.73;12.40;;;2.60;99.90;;;;;;5112070;28;20040;-64
2020/12/11 04:41:15;;;;;;;26.92;12.02;;;2.50;99.90;;;;;;5112963;28;20054;-63
2020/12/11 04:43:43;;;;;;;29.50;14.25;;;2.50;99.90;;;;;;5113938;28;20050;-63
2020/12/11 04:46:10;;;;;;;26.85;12.73;;;2.50;99.90;;;;;;5113228;28;20046;-63
2020/12/11 04:48:37;;;;;;;30.30;13.50;;;2.60;99.90;;;;;;5112207;28;20150;-64
2020/12/11 04:51:08;;;;;;;27.98;13.30;;;2.50;99.90;;;;;;5112033;28;20191;-64
2020/12/11 04:53:37;;;;;;;23.75;12.48;;;2.60;99.90;;;;;;5112529;28;20047;-64
2020/12/11 04:56:05;;;;;;;28.75;13.48;;;2.50;99.90;;;;;;5109893;28;20043;-63
2020/12/11 04:58:33;;;;;;;25.35;12.18;;;2.60;99.90;;;;;;5113287;28;20046;-64
2020/12/11 05:01:03;;;;;;;26.50;13.45;;;2.60;99.90;;;;;;5112158;28;20055;-63
2020/12/11 05:03:34;;;;;;;22.45;12.48;;;2.50;99.90;;;;;;5111334;28;20394;-63
2020/12/11 05:06:01;;;;;;;28.30;14.38;;;2.50;99.90;;;;;;5112713;28;20052;-63
2020/12/11 05:08:28;;;;;;;25.25;12.73;;;2.50;99.90;;;;;;5113193;28;20044;-64
2020/12/11 05:10:54;;;;;;;27.30;13.77;;;2.50;99.90;;;;;;5110866;28;20409;-64
2020/12/11 05:13:22;;;;;;;32.30;14.45;;;2.40;99.90;;;;;;5111979;28;20047;-64
2020/12/11 05:16:12;;;;;;;27.10;14.77;;;2.50;99.90;;;;;;5111375;28;20059;-64
2020/12/11 05:18:39;;;;;;;32.08;15.32;;;2.50;99.90;;;;;;5108893;28;20047;-65
2020/12/11 05:21:19;;;;;;;31.10;14.65;;;2.50;99.90;;;;;;5110887;28;20051;-63
2020/12/11 05:24:04;;;;;;;29.63;14.38;;;2.50;99.90;;;;;;5111701;28;20482;-63
2020/12/11 05:26:32;;;;;;;25.00;13.48;;;2.50;99.90;;;;;;5100884;28;20044;-63
2020/12/11 05:29:00;;;;;;;31.25;14.82;;;2.50;99.90;;;;;;5109857;28;20063;-64
2020/12/11 05:31:27;;;;;;;29.50;14.85;;;2.50;99.90;;;;;;5110002;28;20047;-64
2020/12/11 05:34:10;;;;;;;36.20;18.92;;;2.50;99.90;;;;;;5111928;28;20055;-62
2020/12/11 05:36:47;;;;;;;34.58;17.20;;;2.50;99.90;;;;;;5111717;28;20040;-63
2020/12/11 05:39:32;;;;;;;27.27;14.88;;;2.50;99.90;;;;;;5108282;28;20466;-63
2020/12/11 05:42:10;;;;;;;27.27;14.73;;;2.50;99.90;;;;;;5109201;28;20039;-63
2020/12/11 05:44:37;;;;;;;27.88;14.93;;;2.50;99.90;;;;;;5110819;28;20054;-64
2020/12/11 05:47:23;;;;;;;23.80;13.77;;;2.50;99.90;;;;;;5109050;28;20048;-64
2020/12/11 05:49:51;;;;;;;27.00;15.57;;;2.50;99.90;;;;;;5111353;28;20047;-64
2020/12/11 05:52:19;;;;;;;27.27;15.65;;;2.50;99.90;;;;;;5110339;28;20454;-65
2020/12/11 05:54:47;;;;;;;26.20;15.48;;;2.50;99.90;;;;;;5108051;28;20071;-65
2020/12/11 05:57:15;;;;;;;29.08;15.15;;;2.50;99.90;;;;;;5110941;28;20053;-65
2020/12/11 05:59:44;;;;;;;29.13;15.98;;;2.40;99.90;;;;;;5111089;28;20039;-64
2020/12/11 06:02:11;;;;;;;31.45;16.25;;;2.50;99.90;;;;;;5110557;28;20044;-68
2020/12/11 06:04:39;;;;;;;30.42;16.58;;;2.50;99.90;;;;;;5093289;28;20047;-64
2020/12/11 06:07:14;;;;;;;31.48;16.27;;;2.50;99.90;;;;;;5111072;28;20048;-64
2020/12/11 06:09:42;;;;;;;37.30;19.88;;;2.50;99.90;;;;;;5110493;28;20056;-65
2020/12/11 06:12:11;;;;;;;32.20;17.77;;;2.50;99.90;;;;;;5110746;28;20051;-64
2020/12/11 06:14:51;;;;;;;32.10;17.67;;;2.50;99.90;;;;;;5109989;28;20047;-66
2020/12/11 06:17:22;;;;;;;37.05;17.85;;;2.40;99.90;;;;;;5108765;28;20071;-66
2020/12/11 06:19:50;;;;;;;30.88;16.65;;;2.40;99.90;;;;;;5110820;28;20058;-65
2020/12/11 06:22:21;;;;;;;30.80;16.40;;;2.40;99.90;;;;;;5111050;28;20039;-64
2020/12/11 06:24:48;;;;;;;27.50;15.37;;;2.50;99.90;;;;;;5086912;28;672123;-65
2020/12/11 06:27:14;;;;;;;29.75;15.63;;;2.40;99.90;;;;;;5111225;28;20123;-66
2020/12/11 06:29:41;;;;;;;29.40;15.82;;;2.40;99.90;;;;;;5111482;28;20051;-64
2020/12/11 06:32:08;;;;;;;28.92;16.00;;;2.40;99.90;;;;;;5110543;28;20055;-66
2020/12/11 06:34:36;;;;;;;27.85;16.30;;;2.30;99.90;;;;;;5107884;28;20054;-65
2020/12/11 06:37:04;;;;;;;30.48;16.77;;;2.30;99.90;;;;;;5099298;28;20055;-65
2020/12/11 06:39:49;;;;;;;31.85;17.58;;;2.20;99.90;;;;;;5110238;27;20056;-65
2020/12/11 06:42:34;;;;;;;33.75;18.02;;;2.20;99.90;;;;;;5110454;28;20039;-68
2020/12/11 06:45:13;;;;;;;33.22;17.60;;;2.20;99.90;;;;;;5111521;28;20044;-64
2020/12/11 06:47:47;;;;;;;34.90;18.98;;;2.20;99.90;;;;;;5109998;28;20048;-64
2020/12/11 06:50:13;;;;;;;35.55;19.35;;;2.20;99.90;;;;;;5110579;28;20120;-63
2020/12/11 06:52:40;;;;;;;47.90;24.42;;;2.20;99.90;;;;;;5110154;28;20409;-64
2020/12/11 06:55:06;;;;;;;42.00;21.27;;;2.20;99.90;;;;;;5111106;28;20151;-64
2020/12/11 06:57:35;;;;;;;37.35;18.63;;;2.10;99.90;;;;;;5109881;28;20047;-64
2020/12/11 07:00:21;;;;;;;37.78;19.63;;;2.10;99.90;;;;;;5110338;28;20043;-63
2020/12/11 07:03:11;;;;;;;40.00;20.52;;;2.10;99.90;;;;;;5108726;28;20085;-64
2020/12/11 07:05:38;;;;;;;37.30;18.35;;;2.10;99.90;;;;;;5110879;28;20043;-64
2020/12/11 07:08:14;;;;;;;38.92;20.25;;;2.20;99.90;;;;;;5107396;28;20060;-63
2020/12/11 07:10:42;;;;;;;36.75;19.00;;;2.20;99.90;;;;;;5096796;28;20047;-67
2020/12/11 07:13:10;;;;;;;36.13;19.20;;;2.20;99.90;;;;;;5111432;28;20048;-64
2020/12/11 07:15:37;;;;;;;41.20;20.23;;;2.20;99.90;;;;;;5110500;28;20044;-65
2020/12/11 07:18:11;;;;;;;37.63;19.35;;;2.30;99.90;;;;;;5111268;28;20474;-64
2020/12/11 07:20:38;;;;;;;37.40;19.27;;;2.30;99.90;;;;;;5110486;28;20501;-65
2020/12/11 07:23:05;;;;;;;36.03;18.98;;;2.30;99.90;;;;;;5108893;28;20051;-64
2020/12/11 07:25:35;;;;;;;44.38;22.77;;;2.30;99.90;;;;;;5110404;28;20122;-65
2020/12/11 07:28:03;;;;;;;45.08;24.35;;;2.30;99.90;;;;;;5101143;28;20474;-64
2020/12/11 07:30:30;;;;;;;37.60;19.30;;;2.40;99.90;;;;;;5109805;28;20043;-64
2020/12/11 07:32:56;;;;;;;34.45;18.60;;;2.40;99.90;;;;;;5109399;28;20055;-65
2020/12/11 07:35:24;;;;;;;34.53;18.83;;;2.40;99.90;;;;;;5110094;28;20410;-64
2020/12/11 07:37:55;;;;;;;36.83;19.75;;;2.50;99.90;;;;;;5107816;28;20417;-64
2020/12/11 07:40:23;;;;;;;34.50;18.63;;;2.50;99.90;;;;;;5110599;28;20086;-64
2020/12/11 07:42:51;;;;;;;39.60;19.90;;;2.50;99.90;;;;;;5109183;28;20043;-64
2020/12/11 07:45:33;;;;;;;40.67;21.67;;;2.60;99.90;;;;;;5115356;27;20049;-66
2020/12/11 07:47:59;;;;;;;35.25;19.20;;;2.60;99.90;;;;;;5109708;28;20058;-64
2020/12/11 07:50:27;;;;;;;36.95;18.77;;;2.60;99.90;;;;;;5110439;28;20060;-63
2020/12/11 07:52:56;;;;;;;34.92;19.58;;;2.60;99.90;;;;;;5109774;28;20043;-65
2020/12/11 07:55:26;;;;;;;33.70;19.35;;;2.60;99.90;;;;;;5101944;28;20051;-63
2020/12/11 07:57:57;;;;;;;35.80;19.52;;;2.70;99.90;;;;;;5109376;28;20043;-65
2020/12/11 08:00:26;;;;;;;34.78;18.48;;;2.70;99.90;;;;;;5108730;28;20045;-64
2020/12/11 08:02:57;;;;;;;33.63;18.63;;;2.70;99.90;;;;;;5109612;28;20051;-64
2020/12/11 08:05:24;;;;;;;35.42;19.10;;;2.70;99.90;;;;;;5108166;28;20044;-63
2020/12/11 08:07:53;;;;;;;37.10;19.77;;;2.70;99.90;;;;;;5109491;28;20055;-64
2020/12/11 08:10:32;;;;;;;38.38;20.15;;;2.80;99.90;;;;;;5109424;28;20539;-64
2020/12/11 08:13:11;;;;;;;38.80;20.05;;;2.80;99.90;;;;;;5109537;28;20051;-65
2020/12/11 08:15:45;;;;;;;39.13;20.70;;;2.80;99.90;;;;;;5108480;28;20210;-64
2020/12/11 08:18:12;;;;;;;40.58;21.52;;;2.90;99.90;;;;;;5109301;28;20056;-65
2020/12/11 08:20:44;;;;;;;40.10;20.33;;;3.00;99.90;;;;;;5107444;28;20445;-64
2020/12/11 08:23:36;;;;;;;37.77;19.23;;;3.00;99.90;;;;;;5110072;28;20130;-64
2020/12/11 08:26:10;;;;;;;33.53;18.80;;;3.00;99.90;;;;;;5097034;28;20493;-66
2020/12/11 08:28:40;;;;;;;36.55;19.55;;;3.00;99.90;;;;;;5109734;28;20078;-65
2020/12/11 08:31:16;;;;;;;36.45;18.67;;;3.00;99.90;;;;;;5103736;28;20054;-65
2020/12/11 08:33:46;;;;;;;32.40;18.40;;;3.00;99.90;;;;;;5110078;28;20386;-64
2020/12/11 08:36:26;;;;;;;34.55;18.60;;;3.00;99.90;;;;;;5108407;28;20051;-65
2020/12/11 08:39:06;;;;;;;37.28;21.13;;;3.00;99.90;;;;;;5108869;28;20055;-63
2020/12/11 08:41:41;;;;;;;34.08;19.10;;;3.10;99.90;;;;;;5107742;28;20050;-65
2020/12/11 08:45:06;;;;;;;31.10;18.02;;;3.10;99.90;;;;;;5108659;28;20047;-64
2020/12/11 08:50:09;;;;;;;31.88;18.77;;;3.20;99.90;;;;;;5110029;28;20048;-65
2020/12/11 08:52:36;;;;;;;36.25;21.50;;;3.30;99.90;;;;;;5109186;28;20058;-65
2020/12/11 08:55:04;;;;;;;31.17;18.23;;;3.30;99.90;;;;;;5109636;28;20048;-63
2020/12/11 08:57:32;;;;;;;28.65;17.02;;;3.30;99.90;;;;;;5110478;28;20054;-64
2020/12/11 08:59:59;;;;;;;28.80;17.67;;;3.30;99.90;;;;;;5111745;28;20044;-65
2020/12/11 09:02:26;;;;;;;34.97;19.83;;;3.30;99.90;;;;;;5109602;28;20134;-64
2020/12/11 09:04:56;;;;;;;29.80;17.60;;;3.30;99.90;;;;;;5113480;28;20898;-64
2020/12/11 09:07:36;;;;;;;32.33;18.27;;;3.30;99.90;;;;;;5112935;28;20089;-64
2020/12/11 09:10:04;;;;;;;33.08;18.83;;;3.30;99.90;;;;;;5111685;28;20146;-65
2020/12/11 09:12:34;;;;;;;31.60;17.58;;;3.40;99.90;;;;;;5111312;28;20047;-65
2020/12/11 09:15:01;;;;;;;30.88;17.95;;;3.50;99.90;;;;;;5111182;28;20067;-64
2020/12/11 09:17:30;;;;;;;33.20;17.20;;;3.50;99.90;;;;;;5094599;28;20039;-65
2020/12/11 09:19:57;;;;;;;32.92;18.60;;;3.60;99.90;;;;;;5110357;28;20043;-64
2020/12/11 09:22:24;;;;;;;34.28;18.65;;;3.60;99.90;;;;;;5111254;28;20043;-65
2020/12/11 09:24:50;;;;;;;31.38;17.17;;;3.70;99.90;;;;;;5112399;28;20056;-63
2020/12/11 09:27:17;;;;;;;32.30;18.08;;;3.70;99.90;;;;;;5110286;28;20469;-64
2020/12/11 09:29:58;;;;;;;31.92;18.40;;;3.80;99.90;;;;;;5102428;28;20429;-65
2020/12/11 09:32:51;;;;;;;31.63;18.15;;;3.90;99.90;;;;;;5111088;28;20112;-64
2020/12/11 09:35:18;;;;;;;35.08;20.40;;;3.90;99.90;;;;;;5112543;28;20059;-67
2020/12/11 09:37:49;;;;;;;37.08;21.15;;;4.00;99.90;;;;;;5092276;28;20048;-64
2020/12/11 09:40:23;;;;;;;31.92;19.20;;;4.00;99.90;;;;;;5111326;28;20491;-64
2020/12/11 09:56:23;;;;;;;33.72;18.38;;;4.20;99.90;;;;;;5103388;28;20158;-67
2020/12/11 09:58:53;;;;;;;32.80;19.20;;;4.00;99.90;;;;;;5099356;28;20044;-63
2020/12/11 10:01:31;;;;;;;29.23;18.38;;;4.00;99.90;;;;;;5110720;28;20052;-63
2020/12/11 10:03:58;;;;;;;30.27;17.77;;;4.00;99.90;;;;;;5083898;28;20047;-63
2020/12/11 10:06:26;;;;;;;32.10;18.00;;;4.10;99.90;;;;;;5111924;28;20055;-64
2020/12/11 10:08:54;;;;;;;31.75;19.13;;;4.10;99.90;;;;;;5093941;28;20105;-64
2020/12/11 10:11:21;;;;;;;27.35;17.27;;;4.10;99.90;;;;;;5111475;28;20482;-65
2020/12/11 10:13:53;;;;;;;28.73;17.92;;;4.10;99.90;;;;;;5093053;28;20148;-63
2020/12/11 10:16:19;;;;;;;28.05;17.70;;;4.10;99.90;;;;;;5111001;28;20055;-64
2020/12/11 10:18:46;;;;;;;31.70;17.85;;;4.10;99.90;;;;;;5111336;28;20054;-66
2020/12/11 10:21:16;;;;;;;31.75;18.40;;;4.10;99.90;;;;;;5108358;28;20061;-64
2020/12/11 10:23:44;;;;;;;32.83;18.83;;;4.10;99.90;;;;;;5111270;28;20558;-64
2020/12/11 10:26:11;;;;;;;32.50;19.30;;;4.10;99.90;;;;;;5109434;28;20067;-64
2020/12/11 10:28:37;;;;;;;32.45;18.30;;;4.10;99.90;;;;;;5112474;28;20040;-63
2020/12/11 10:31:04;;;;;;;29.65;17.38;;;4.00;99.90;;;;;;5109103;28;20047;-64
2020/12/11 10:33:30;;;;;;;33.47;19.48;;;4.10;99.90;;;;;;5110921;28;20454;-63
2020/12/11 10:35:57;;;;;;;42.92;23.90;;;4.10;99.90;;;;;;5108338;28;20051;-66
2020/12/11 10:38:26;;;;;;;43.53;24.75;;;4.10;99.90;;;;;;5109381;28;20047;-63
2020/12/11 10:40:53;;;;;;;33.35;18.80;;;4.20;99.90;;;;;;5109630;28;20490;-63
2020/12/11 10:43:19;;;;;;;33.03;19.23;;;4.10;99.90;;;;;;5093278;28;20046;-64
2020/12/11 10:45:46;;;;;;;32.40;18.80;;;4.10;99.90;;;;;;5111378;28;20051;-66
2020/12/11 10:48:14;;;;;;;34.72;18.98;;;4.10;99.90;;;;;;5110333;28;20441;-64
2020/12/11 10:50:41;;;;;;;34.08;19.05;;;4.10;99.90;;;;;;5109489;28;20055;-66
2020/12/11 10:53:07;;;;;;;36.40;18.90;;;4.10;99.90;;;;;;5108844;28;20063;-64
2020/12/11 10:55:34;;;;;;;37.53;18.80;;;4.00;99.90;;;;;;5110381;28;20430;-63
2020/12/11 10:58:00;;;;;;;32.90;19.08;;;4.00;99.90;;;;;;5109185;28;20405;-64
2020/12/11 11:00:27;;;;;;;34.42;19.83;;;4.00;99.90;;;;;;5111281;28;20044;-64
2020/12/11 11:02:53;;;;;;;32.13;19.13;;;4.00;99.90;;;;;;5108740;28;20395;-63
2020/12/11 11:05:20;;;;;;;32.05;17.60;;;4.00;99.90;;;;;;5102241;28;20367;-65
2020/12/11 11:07:46;;;;;;;32.95;18.33;;;4.00;99.90;;;;;;5110578;28;20077;-64
2020/12/11 11:10:17;;;;;;;33.00;18.95;;;4.00;99.90;;;;;;5092456;28;20051;-65
2020/12/11 11:13:02;;;;;;;35.08;19.05;;;4.00;99.90;;;;;;5110186;28;20132;-65
2020/12/11 11:21:09;;;;;;;35.22;18.88;;;4.10;99.90;;;;;;5109332;28;20046;-65
2020/12/11 11:23:52;;;;;;;37.53;20.02;;;4.10;99.90;;;;;;5092628;28;20048;-65
2020/12/11 11:27:04;;;;;;;40.90;20.80;;;4.20;99.90;;;;;;5107525;28;20040;-66
2020/12/11 11:29:31;;;;;;;38.33;20.50;;;4.30;99.90;;;;;;5109364;28;20095;-65
2020/12/11 11:31:57;;;;;;;37.15;20.05;;;4.30;99.90;;;;;;5092593;28;20055;-66
2020/12/11 11:34:24;;;;;;;38.33;20.67;;;4.30;99.90;;;;;;5104729;28;20431;-64
2020/12/11 11:36:52;;;;;;;37.95;20.25;;;4.20;99.90;;;;;;5108827;28;20047;-64
2020/12/11 11:39:21;;;;;;;31.23;17.77;;;4.10;99.90;;;;;;5109188;28;20096;-64
2020/12/11 11:41:53;;;;;;;31.92;18.23;;;4.10;99.90;;;;;;5109172;28;20051;-63
2020/12/11 11:46:52;;;;;;;34.65;18.80;;;4.00;99.90;;;;;;5109132;28;20051;-64
2020/12/11 11:49:34;;;;;;;38.92;19.83;;;4.10;99.90;;;;;;5109379;28;20055;-66
2020/12/11 11:54:49;;;;;;;36.03;18.95;;;4.20;99.90;;;;;;5109614;28;20134;-65
2020/12/11 11:57:15;;;;;;;37.15;20.27;;;4.10;99.90;;;;;;5108636;28;20469;-65
2020/12/11 11:59:43;;;;;;;34.63;18.40;;;4.00;99.90;;;;;;5092529;28;20051;-64
2020/12/11 12:02:10;;;;;;;36.90;18.95;;;4.00;99.90;;;;;;5107269;28;20127;-65
2020/12/11 12:04:43;;;;;;;32.22;18.17;;;4.00;99.90;;;;;;5094194;28;20086;-64
2020/12/11 12:07:12;;;;;;;36.42;19.63;;;4.00;99.90;;;;;;5090262;28;20478;-65
2020/12/11 12:09:42;;;;;;;35.35;19.58;;;4.00;99.90;;;;;;5108545;28;20130;-65
2020/12/11 12:12:08;;;;;;;38.50;19.08;;;4.10;99.90;;;;;;5109245;28;20051;-66
2020/12/11 12:14:35;;;;;;;35.67;19.70;;;4.20;99.90;;;;;;5110227;28;20051;-65
2020/12/11 12:17:04;;;;;;;33.97;17.98;;;4.30;99.90;;;;;;5092157;28;20058;-66
2020/12/11 12:19:34;;;;;;;36.40;18.83;;;4.30;99.90;;;;;;5110207;28;20391;-65
2020/12/11 12:29:47;;;;;;;32.50;18.05;;;4.20;99.90;;;;;;5110005;28;20421;-63
2020/12/11 12:32:16;;;;;;;33.15;18.80;;;4.10;99.90;;;;;;5112058;28;20509;-64
2020/12/11 12:35:00;;;;;;;32.47;18.25;;;4.20;99.90;;;;;;5112909;28;20055;-64
2020/12/11 12:45:17;;;;;;;;;;;4.20;99.90;;;;;;5104058;28;20158;-64
2020/12/11 12:47:44;;;;;;;31.02;17.17;;;4.20;99.90;;;;;;5113165;28;19923;-64
2020/12/11 12:50:11;;;;;;;36.15;19.42;;;4.20;99.90;;;;;;5114358;28;20511;-64
2020/12/11 12:52:38;;;;;;;34.90;18.80;;;4.10;99.90;;;;;;5112718;28;20051;-65
2020/12/11 12:55:14;;;;;;;29.48;16.80;;;4.10;99.90;;;;;;5095127;28;20053;-65
2020/12/11 12:57:47;;;;;;;31.85;18.00;;;4.20;99.90;;;;;;5111146;28;20047;-66
2020/12/11 13:05:10;;;;;;;31.30;18.08;;;4.10;99.90;;;;;;5113545;28;20050;-65
2020/12/11 13:07:38;;;;;;;33.85;19.38;;;4.10;99.90;;;;;;5111984;28;20044;-65
2020/12/11 13:10:06;;;;;;;35.58;17.45;;;4.10;99.90;;;;;;5113270;28;20079;-66
2020/12/11 13:12:32;;;;;;;29.05;17.45;;;4.10;99.90;;;;;;5112479;28;20065;-67
2020/12/11 13:14:59;;;;;;;33.53;17.85;;;4.10;99.90;;;;;;5113840;28;20077;-64
2020/12/11 13:17:26;;;;;;;29.65;17.02;;;4.00;99.90;;;;;;5112859;28;20059;-65
2020/12/11 13:19:53;;;;;;;37.00;19.95;;;4.00;99.90;;;;;;5093276;28;20066;-67
2020/12/11 13:27:44;;;;;;;30.45;18.23;;;4.00;99.90;;;;;;5109608;28;20040;-64
2020/12/11 13:30:12;;;;;;;29.23;17.92;;;4.00;99.90;;;;;;5110411;28;20413;-64
2020/12/11 13:32:39;;;;;;;31.55;18.25;;;4.00;99.90;;;;;;5110097;28;20117;-66
2020/12/11 13:35:06;;;;;;;33.15;17.67;;;3.90;99.90;;;;;;5112395;28;20051;-64
2020/12/11 13:37:33;;;;;;;28.02;17.48;;;4.00;99.90;;;;;;5093049;28;20394;-64
2020/12/11 13:40:01;;;;;;;30.05;18.10;;;4.00;99.90;;;;;;5092509;28;20258;-64
2020/12/11 13:42:31;;;;;;;32.72;18.98;;;4.00;99.90;;;;;;5110799;28;20169;-64